Home > Products > Valid Products > TAF

000
FTUS45 KPSR 291542 AAB
TAFPHX
TAF AMD
KPHX 291542Z 2916/3012 27006KT P6SM BKN100
      TEMPO 2916/2918 VRB05KT SCT100
     FM291800 27016G22KT P6SM SCT070
     FM300300 26009KT P6SM FEW120=



000
FTUS45 KPSR 291451 AAA
TAFPHX
TAF AMD
KPHX 291451Z 2915/3012 27006KT P6SM BKN100
      TEMPO 2915/2918 VRB05KT OVC080
     FM292100 27016G22KT P6SM SCT070
     FM300300 26009KT P6SM FEW120=



000
FTUS45 KPSR 291120
TAFIWA
TAF
KIWA 291120Z 2912/3012 VRB05KT P6SM BKN080
     FM291700 26008KT P6SM BKN080
     FM292100 27013G20KT P6SM SCT060
     FM300400 21007KT P6SM FEW120
     FM300800 12006KT P6SM FEW120
      AMD LTD TO CLD VIS AND WIND TIL 291300=



000
FTUS45 KPSR 291120
TAFIPL
TAF
KIPL 291120Z 2912/3012 25006KT P6SM SKC
     FM300100 27012KT P6SM SKC=



000
FTUS45 KPSR 291120
TAFPHX
TAF
KPHX 291120Z 2912/3012 25007KT P6SM BKN080
      TEMPO 2914/2917 VRB05KT OVC080
     FM292100 27016G22KT P6SM SCT070
     FM300300 26009KT P6SM FEW120=



000
FTUS45 KPSR 291120
TAFBLH
TAF
KBLH 291120Z 2912/3012 VRB05KT P6SM SKC
     FM292000 22012G18KT P6SM SKC
     FM300300 19009KT P6SM SKC=



000
FTUS45 KPSR 290837 AAA
TAFPHX
TAF AMD
KPHX 290837Z 2909/3006 24006KT P6SM FEW100 SCT200
     FM291100 13006KT P6SM FEW100
     FM291800 24008KT P6SM SCT100
     FM292100 27016G22KT P6SM SCT100
     FM300300 26010KT P6SM FEW100=



000
FTUS45 KPSR 290520
TAFIPL
TAF
KIPL 290520Z 2906/3006 26010KT P6SM SKC
     FM291200 26006KT P6SM SKC
     FM300000 28010KT P6SM SKC=



000
FTUS45 KPSR 290520
TAFBLH
TAF
KBLH 290520Z 2906/3006 23010KT P6SM FEW100
     FM291000 25008KT P6SM SKC
     FM292100 27012KT P6SM FEW100=



000
FTUS45 KPSR 290520
TAFIWA
TAF
KIWA 290520Z 2906/3006 21010KT P6SM FEW100 SCT200
     FM290800 15006KT P6SM FEW100
     FM291800 26008KT P6SM SCT100
     FM292100 27013G20KT P6SM SCT100
     FM300300 24007KT P6SM FEW100
      AMD LTD TO CLD VIS AND WIND TIL 291300=



000
FTUS45 KPSR 290520
TAFPHX
TAF
KPHX 290520Z 2906/3006 27010KT P6SM SCT100 SCT200
     FM290800 24006KT P6SM FEW100 SCT200
     FM291100 13006KT P6SM FEW100
     FM291800 28008KT P6SM SCT100
     FM292100 27016G22KT P6SM SCT100
     FM300300 26010KT P6SM FEW100=



000
FTUS45 KPSR 290520
TAFPHX
TAF
KPHX 290520Z 2906/3006 27010KT P6SM SCT100 SCT200
     FM290800 24006KT P6SM FEW100 SCT200
     FM291100 13006KT P6SM FEW100
     FM291800 28008KT P6SM SCT100
     FM292100 27016G22KT P6SM SCT100
     FM300300 26010KT P6SM FEW100=



000
FTUS45 KPSR 290520
TAFBLH
TAF
KBLH 290520Z 2906/3006 23010KT P6SM FEW100
     FM291000 25008KT P6SM SKC
     FM292100 27012KT P6SM FEW100=



000
FTUS45 KPSR 290520
TAFIPL
TAF
KIPL 290520Z 2906/3006 26010KT P6SM SKC
     FM291200 26006KT P6SM SKC
     FM300000 28010KT P6SM SKC=



000
FTUS45 KPSR 290520
TAFIWA
TAF
KIWA 290520Z 2906/3006 21010KT P6SM FEW100 SCT200
     FM290800 15006KT P6SM FEW100
     FM291800 26008KT P6SM SCT100
     FM292100 27013G20KT P6SM SCT100
     FM300300 24007KT P6SM FEW100
      AMD LTD TO CLD VIS AND WIND TIL 291300=



000
FTUS45 KPSR 290236 AAA
TAFPHX
TAF AMD
KPHX 290236Z 2903/2924 27010KT P6SM SCT100 SCT200
     FM290600 24006KT P6SM FEW100 SCT200
     FM291100 14006KT P6SM FEW100
     FM291800 27013KT P6SM SCT100=



000
FTUS45 KPSR 290236 AAA
TAFPHX
TAF AMD
KPHX 290236Z 2903/2924 27010KT P6SM SCT100 SCT200
     FM290600 24006KT P6SM FEW100 SCT200
     FM291100 14006KT P6SM FEW100
     FM291800 27013KT P6SM SCT100=



000
FTUS45 KPSR 290236 AAA
TAFIWA
TAF AMD
KIWA 290236Z 2903/2924 26006KT P6SM FEW100 SCT200
     FM290600 15006KT P6SM FEW100
     FM291800 27012KT P6SM SCT100
      AMD LTD TO CLD VIS AND WIND TIL 291300=



000
FTUS45 KPSR 290236 AAA
TAFBLH
TAF AMD
KBLH 290236Z 2903/2924 23010KT P6SM VCSH BKN080
     FM290600 25008KT P6SM SKC
     FM291800 35010KT P6SM SKC=



000
FTUS45 KPSR 282332
TAFBLH
TAF
KBLH 282332Z 2900/2924 25012KT P6SM VCSH SCT080
      TEMPO 2900/2904 25012G20KT
     FM290900 25008KT P6SM SKC
     FM291800 35010KT P6SM SKC=



000
FTUS45 KPSR 282332
TAFIWA
TAF
KIWA 282332Z 2900/2924 27012G21KT P6SM SCT100 SCT200
     FM290300 26006KT P6SM FEW100 SCT200
     FM290600 15006KT P6SM FEW100
     FM291800 27012KT P6SM SCT100
      AMD LTD TO CLD VIS AND WIND 2903/2913=



000
FTUS45 KPSR 282332
TAFIPL
TAF
KIPL 282332Z 2900/2924 26020G30KT P6SM FEW080
      TEMPO 2900/2903 25022G34KT
     FM290600 26015G22KT P6SM SKC
     FM291200 26006KT P6SM SKC=



000
FTUS45 KPSR 282332
TAFPHX
TAF
KPHX 282332Z 2900/2924 27012G20KT P6SM SCT100 SCT200
      TEMPO 2900/2902 27014G26KT
     FM290400 24006KT P6SM FEW100 SCT200
     FM291100 14006KT P6SM FEW100
     FM291800 27013KT P6SM SCT100=



000
FTUS45 KPSR 282227 AAA
TAFIWA
TAF AMD
KIWA 282227Z 2822/2918 27012G21KT P6SM SCT080
     FM290200 24006KT P6SM BKN070
     FM291000 15006KT P6SM SCT100=



000
FTUS45 KPSR 282225 AAC
TAFPHX
TAF AMD
KPHX 282225Z 2822/2918 25012G20KT P6SM SCT100
      TEMPO 2822/2824 23014G26KT
     FM290200 24006KT P6SM BKN070
     FM291100 14006KT P6SM SCT100=



000
FTUS45 KPSR 282225 AAC
TAFPHX
TAF AMD
KPHX 282225Z 2822/2918 25012G20KT P6SM SCT100
      TEMPO 2822/2824 23014G26KT
     FM290200 24006KT P6SM BKN070
     FM291100 14006KT P6SM SCT100=



000
FTUS45 KPSR 282041 AAB
TAFPHX
TAF AMD
KPHX 282041Z 2821/2918 25012G22KT P6SM SCT100
     FM290200 24006KT P6SM BKN070
     FM291100 14006KT P6SM SCT100=



000
FTUS45 KPSR 282041 AAB
TAFPHX
TAF AMD
KPHX 282041Z 2821/2918 25012G22KT P6SM SCT100
     FM290200 24006KT P6SM BKN070
     FM291100 14006KT P6SM SCT100=



000
FTUS45 KPSR 281807 AAA
TAFPHX
TAF AMD
KPHX 281807Z 2818/2918 24010G20KT P6SM SCT080
     FM290200 25006KT P6SM BKN070
     FM291000 14006KT P6SM SCT100=



000
FTUS45 KPSR 281722
TAFPHX
TAF
KPHX 281722Z 2818/2918 24010G20KT P6SM BKN080
     FM290200 25006KT P6SM BKN070
     FM291000 14006KT P6SM SCT100=



000
FTUS45 KPSR 281722
TAFIWA
TAF
KIWA 281722Z 2818/2918 25012KT P6SM SCT080
     FM290200 24006KT P6SM BKN070
     FM291000 15006KT P6SM SCT100=



000
FTUS45 KPSR 281722
TAFIPL
TAF
KIPL 281722Z 2818/2918 26014G26KT P6SM FEW080
      TEMPO 2818/2822 25022G34KT
     FM290700 29006KT P6SM SKC=



000
FTUS45 KPSR 281722
TAFBLH
TAF
KBLH 281722Z 2818/2918 25012KT P6SM VCSH BKN080
      TEMPO 2818/2822 23012G23KT P6SM BKN070
     FM290500 25008KT P6SM SCT120=



000
FTUS45 KPSR 281547 AAB
TAFPHX
TAF AMD
KPHX 281547Z 2816/2912 26008KT P6SM BKN080
     FM281700 23009G18KT P6SM BKN080
     FM290200 25006KT P6SM BKN070
     FM291000 14006KT P6SM SCT100=



000
FTUS45 KPSR 281543 AAA
TAFIPL
TAF AMD
KIPL 281543Z 2816/2912 26014G26KT P6SM FEW080
      TEMPO 2816/2819 25022G32KT
     FM290700 26010KT P6SM SKC=



000
FTUS45 KPSR 281449 AAA
TAFPHX
TAF AMD
KPHX 281449Z 2815/2912 26008KT P6SM SCT090
     FM281700 23009G18KT P6SM FEW080
     FM290200 25006KT P6SM BKN070
     FM291000 14006KT P6SM SCT100=



000
FTUS45 KPSR 281449 AAA
TAFPHX
TAF AMD
KPHX 281449Z 2815/2912 26008KT P6SM SCT090
     FM281700 23009G18KT P6SM FEW080
     FM290200 25006KT P6SM BKN070
     FM291000 14006KT P6SM SCT100=



000
FTUS45 KPSR 281120
TAFBLH
TAF
KBLH 281120Z 2812/2912 25012KT P6SM SCT080
     FM282300 23012G23KT P6SM SCT090
     FM290500 20008KT P6SM SCT120=



000
FTUS45 KPSR 281120
TAFIWA
TAF
KIWA 281120Z 2812/2912 14007KT P6SM FEW090
     FM281700 26012KT P6SM FEW080
     FM290400 15006KT P6SM BKN070
      AMD LTD TO CLD VIS AND WIND TIL 281300=



000
FTUS45 KPSR 281120
TAFPHX
TAF
KPHX 281120Z 2812/2912 20005KT P6SM FEW090
     FM281700 23009G18KT P6SM FEW080
     FM290200 25006KT P6SM BKN070
     FM291000 14006KT P6SM SCT100=



000
FTUS45 KPSR 281120
TAFIPL
TAF
KIPL 281120Z 2812/2912 26014G26KT P6SM FEW080
     FM290700 26010KT P6SM SKC=



000
FTUS45 KPSR 280853 AAB
TAFPHX
TAF AMD
KPHX 280853Z 2809/2906 15005KT P6SM FEW100 SCT250
     FM281700 23009G18KT P6SM FEW070
     FM290300 26006KT P6SM BKN070=



000
FTUS45 KPSR 280853 AAB
TAFPHX
TAF AMD
KPHX 280853Z 2809/2906 15005KT P6SM FEW100 SCT250
     FM281700 23009G18KT P6SM FEW070
     FM290300 26006KT P6SM BKN070=



000
FTUS45 KPSR 280714 AAA
TAFBLH
TAF AMD
KBLH 280714Z 2807/2906 24012KT P6SM SCT070
     FM282300 22012G23KT P6SM SCT080
     FM290500 26009KT P6SM SCT120=



000
FTUS45 KPSR 280710 AAA
TAFIPL
TAF AMD
KIPL 280710Z 2807/2906 27013G22KT P6SM SKC
     FM290300 26017G30KT P6SM SKC=



000
FTUS45 KPSR 280704 AAA
TAFIWA
TAF AMD
KIWA 280704Z 2807/2906 17007KT P6SM FEW120 SCT250
     FM281700 26011KT P6SM FEW070
     FM290400 16006KT P6SM BKN070
      AMD LTD TO CLD VIS AND WIND TIL 281300=



000
FTUS45 KPSR 280702 AAA
TAFPHX
TAF AMD
KPHX 280702Z 2807/2906 17006KT P6SM FEW100 SCT250
     FM281700 23009G18KT P6SM FEW070
     FM290300 26006KT P6SM BKN070=



000
FTUS45 KPSR 280521
TAFPHX
TAF
KPHX 280521Z 2806/2906 24012KT P6SM SCT120 BKN250
     FM280900 26014KT P6SM SCT120
     FM290300 24010KT P6SM SCT060 BKN120=



000
FTUS45 KPSR 280521
TAFIWA
TAF
KIWA 280521Z 2806/2906 24011KT P6SM FEW120 BKN250
     FM280800 15008KT P6SM SCT120
     FM281600 21010KT P6SM SCT060 SCT120
     FM281800 27010G18KT P6SM VCSH SCT060 BKN120
     FM290300 24005KT P6SM SCT060 BKN120
      AMD LTD TO CLD VIS AND WIND TIL 281300=



000
FTUS45 KPSR 280521
TAFIPL
TAF
KIPL 280521Z 2806/2906 27020G30KT P6SM FEW250
      TEMPO 2808/2812 27025G35KT
     FM281800 27015G25KT P6SM FEW120=



000
FTUS45 KPSR 280521
TAFBLH
TAF
KBLH 280521Z 2806/2906 23018G25KT P6SM SCT250
     FM281500 25015KT P6SM SCT060 BKN100=



000
FTUS45 KPSR 280243 AAA
TAFPHX
TAF AMD
KPHX 280243Z 2803/2824 26010KT P6SM FEW120 SCT250
     FM280500 24008KT P6SM SCT120
     FM281100 21012KT P6SM SCT120
     FM281800 24014G22KT P6SM SCT060 SCT120=



000
FTUS45 KPSR 280243 AAA
TAFPHX
TAF AMD
KPHX 280243Z 2803/2824 26010KT P6SM FEW120 SCT250
     FM280500 24008KT P6SM SCT120
     FM281100 21012KT P6SM SCT120
     FM281800 24014G22KT P6SM SCT060 SCT120=



000
FTUS45 KPSR 272328
TAFIPL
TAF
KIPL 272328Z 2800/2824 26020G33KT P6SM FEW250
     FM280800 26030G40KT P6SM SCT120 SCT250
     FM281400 27020G30KT P6SM FEW120=



000
FTUS45 KPSR 272328
TAFPHX
TAF
KPHX 272328Z 2800/2824 23010G19KT P6SM FEW120 SCT250
     FM280500 24008KT P6SM SCT120
     FM281100 21012KT P6SM SCT120
     FM281800 24014G22KT P6SM SCT060 SCT120=



000
FTUS45 KPSR 272328
TAFBLH
TAF
KBLH 272328Z 2800/2824 23015G25KT P6SM SCT250
     FM281500 25015KT P6SM SCT060 BKN100=



000
FTUS45 KPSR 272328
TAFIWA
TAF
KIWA 272328Z 2800/2824 24011KT P6SM FEW120 BKN250
     FM280800 15008KT P6SM SCT120
     FM281600 21008KT P6SM SCT060 SCT120
     FM281800 27010G18KT P6SM VCSH SCT060 BKN120
      AMD LTD TO CLD VIS AND WIND 2803/2813=



000
FTUS45 KPSR 272109 AAA
TAFPHX
TAF AMD
KPHX 272109Z 2721/2818 23010G19KT P6SM FEW120 SCT250
     FM280500 21008KT P6SM SCT120
     FM281100 15007KT P6SM SCT120
     FM281600 22010KT P6SM SCT060 SCT120=



000
FTUS45 KPSR 271720
TAFIPL
TAF
KIPL 271720Z 2718/2818 17006KT P6SM SCT250
     FM272200 22011KT P6SM FEW250
     FM280000 26018G33KT P6SM FEW250
     FM280800 26020KT P6SM SCT120 SCT250=



000
FTUS45 KPSR 271720
TAFBLH
TAF
KBLH 271720Z 2718/2818 19011G20KT P6SM SCT250
     FM280300 24016KT P6SM FEW060 SCT120
     FM281500 25012KT P6SM SCT060 BKN100=



000
FTUS45 KPSR 271720
TAFPHX
TAF
KPHX 271720Z 2718/2818 10006KT P6SM BKN200
     FM271900 20007KT P6SM BKN200
     FM272300 25010G19KT P6SM FEW120 SCT250
     FM280500 21008KT P6SM SCT120
     FM281100 15007KT P6SM SCT120
     FM281600 22010KT P6SM SCT060 SCT120=



000
FTUS45 KPSR 271720
TAFIWA
TAF
KIWA 271720Z 2718/2818 24011KT P6SM FEW120 BKN250
     FM280800 15008KT P6SM SCT120
     FM281600 21008KT P6SM SCT060 SCT120=



000
FTUS45 KPSR 271604 AAA
TAFBLH
TAF AMD
KBLH 271604Z 2716/2812 18010KT P6SM SCT250
     FM271900 19011G20KT P6SM FEW250
     FM280300 24014KT P6SM SCT120=



000
FTUS45 KPSR 271444 AAA
TAFPHX
TAF AMD
KPHX 271444Z 2715/2812 10006KT P6SM FEW200
     FM271900 20007KT P6SM BKN200
     FM280000 25010G19KT P6SM FEW120 SCT250
     FM280500 21008KT P6SM SCT120=



000
FTUS45 KPSR 271444 AAA
TAFPHX
TAF AMD
KPHX 271444Z 2715/2812 10006KT P6SM FEW200
     FM271900 20007KT P6SM BKN200
     FM280000 25010G19KT P6SM FEW120 SCT250
     FM280500 21008KT P6SM SCT120=



000
FTUS45 KPSR 271136
TAFIWA
TAF
KIWA 271136Z 2712/2812 12007KT P6SM FEW250
     FM271900 24011KT P6SM FEW120 BKN250
     FM280800 16008KT P6SM SCT120
      AMD LTD TO CLD VIS AND WIND TIL 271300=



000
FTUS45 KPSR 271136
TAFPHX
TAF
KPHX 271136Z 2712/2812 11006KT P6SM FEW250
     FM271900 20007KT P6SM BKN200
     FM280000 25010G19KT P6SM FEW120 SCT250
     FM280500 21008KT P6SM SCT120=



000
FTUS45 KPSR 271136
TAFIPL
TAF
KIPL 271136Z 2712/2812 VRB04KT P6SM SCT250
     FM272000 22011KT P6SM FEW250
     FM280000 26018G33KT P6SM FEW250=



000
FTUS45 KPSR 271136
TAFIWA
TAF
KIWA 271136Z 2712/2812 12007KT P6SM FEW250
     FM271900 24011KT P6SM FEW120 BKN250
     FM280800 16008KT P6SM SCT120
      AMD LTD TO CLD VIS AND WIND TIL 271300=



000
FTUS45 KPSR 271136
TAFBLH
TAF
KBLH 271136Z 2712/2812 VRB04KT P6SM SCT250
     FM271900 19011G20KT P6SM FEW250
     FM280300 24014KT P6SM SCT120=



000
FTUS45 KPSR 270854 AAB
TAFPHX
TAF AMD
KPHX 270854Z 2709/2806 11006KT P6SM FEW250
     FM271800 20006KT P6SM BKN250
     FM280000 25010G19KT P6SM FEW120 SCT250=



000
FTUS45 KPSR 270854 AAB
TAFPHX
TAF AMD
KPHX 270854Z 2709/2806 11006KT P6SM FEW250
     FM271800 20006KT P6SM BKN250
     FM280000 25010G19KT P6SM FEW120 SCT250=



000
FTUS45 KPSR 270756 AAA
TAFBLH
TAF AMD
KBLH 270756Z 2708/2806 25007KT P6SM SCT250
     FM271100 VRB04KT P6SM SCT250
     FM271900 19011G20KT P6SM FEW250
     FM280300 24014KT P6SM SCT120=



000
FTUS45 KPSR 270750 AAA
TAFIPL
TAF AMD
KIPL 270750Z 2708/2806 27008KT P6SM FEW250
     FM271400 VRB04KT P6SM SCT250
     FM272000 22011KT P6SM FEW250
     FM280000 26018G32KT P6SM FEW250=



000
FTUS45 KPSR 270730 AAA
TAFIWA
TAF AMD
KIWA 270730Z 2708/2806 12007KT P6SM FEW250
     FM271900 24011KT P6SM BKN250
      AMD LTD TO CLD VIS AND WIND TIL 271300=



000
FTUS45 KPSR 270730 AAA
TAFIWA
TAF AMD
KIWA 270730Z 2708/2806 12007KT P6SM FEW250
     FM271900 24011KT P6SM BKN250
      AMD LTD TO CLD VIS AND WIND TIL 271300=



000
FTUS45 KPSR 270729 AAA
TAFPHX
TAF AMD
KPHX 270729Z 2707/2806 11006KT P6SM FEW250
     FM271800 20006KT P6SM BKN250
     FM280000 25010G19KT P6SM FEW120 SCT250=



000
FTUS45 KPSR 270729 AAA
TAFPHX
TAF AMD
KPHX 270729Z 2707/2806 11006KT P6SM FEW250
     FM271800 20006KT P6SM BKN250
     FM280000 25010G19KT P6SM FEW120 SCT250=



000
FTUS45 KPSR 270521
TAFPHX
TAF
KPHX 270521Z 2706/2806 VRB05KT P6SM SCT250
     FM270800 12005KT P6SM SCT250
     FM272200 24008KT P6SM SCT250
     FM272300 26012G22KT P6SM BKN250=



000
FTUS45 KPSR 270521
TAFIPL
TAF
KIPL 270521Z 2706/2806 26010KT P6SM SCT250
     FM270900 24006KT P6SM SCT250
     FM272200 22015G25KT P6SM SCT250
     FM280100 25018G32KT P6SM SCT250=



000
FTUS45 KPSR 270521
TAFBLH
TAF
KBLH 270521Z 2706/2806 20006KT P6SM SCT250
     FM271800 18014KT P6SM SCT250
     FM272200 20015G25KT P6SM SCT250=



000
FTUS45 KPSR 270521
TAFIWA
TAF
KIWA 270521Z 2706/2806 13007KT P6SM BKN250
     FM271900 25007KT P6SM SCT250
     FM272200 24012KT P6SM BKN250
      AMD LTD TO CLD VIS AND WIND TIL 271300=



000
FTUS45 KPSR 270252 AAA
TAFPHX
TAF AMD
KPHX 270252Z 2703/2724 23006KT P6SM BKN250
     FM270800 12005KT P6SM BKN250
     FM272200 24007KT P6SM SCT250=



000
FTUS45 KPSR 270252 AAA
TAFPHX
TAF AMD
KPHX 270252Z 2703/2724 23006KT P6SM BKN250
     FM270800 12005KT P6SM BKN250
     FM272200 24007KT P6SM SCT250=



000
FTUS45 KPSR 262325
TAFIPL
TAF
KIPL 262325Z 2700/2724 26008KT P6SM BKN250
     FM271200 24006KT P6SM BKN250
     FM272100 22015G25KT P6SM SCT250=



000
FTUS45 KPSR 262325
TAFBLH
TAF
KBLH 262325Z 2700/2724 18006KT P6SM BKN250
     FM271800 18014KT P6SM SCT250
     FM272200 20015G25KT P6SM SCT250=



000
FTUS45 KPSR 262325
TAFIPL
TAF
KIPL 262325Z 2700/2724 26008KT P6SM BKN250
     FM271200 24006KT P6SM BKN250
     FM272100 22015G25KT P6SM SCT250=



000
FTUS45 KPSR 262325
TAFIWA
TAF
KIWA 262325Z 2700/2724 25011G17KT P6SM SKC
     FM270100 22005KT P6SM FEW250
     FM270500 13007KT P6SM BKN250
     FM271900 25007KT P6SM SCT250
      AMD LTD TO CLD VIS AND WIND 2703/2713=



000
FTUS45 KPSR 262325
TAFPHX
TAF
KPHX 262325Z 2700/2724 26012G18KT P6SM SKC
     FM270300 26006KT P6SM FEW250
     FM270800 12005KT P6SM BKN250
     FM272200 24007KT P6SM SCT250=



000
FTUS45 KPSR 262325
TAFBLH
TAF
KBLH 262325Z 2700/2724 18006KT P6SM BKN250
     FM271800 18014KT P6SM SCT250
     FM272200 20015G25KT P6SM SCT250=



000
FTUS45 KPSR 262325
TAFPHX
TAF
KPHX 262325Z 2700/2724 26012G18KT P6SM SKC
     FM270300 26006KT P6SM FEW250
     FM270800 12005KT P6SM BKN250
     FM272200 24007KT P6SM SCT250=



000
FTUS45 KPSR 262325
TAFIWA
TAF
KIWA 262325Z 2700/2724 25011G17KT P6SM SKC
     FM270100 22005KT P6SM FEW250
     FM270500 13007KT P6SM BKN250
     FM271900 25007KT P6SM SCT250
      AMD LTD TO CLD VIS AND WIND 2703/2713=



000
FTUS45 KPSR 262109 AAA
TAFPHX
TAF AMD
KPHX 262109Z 2621/2718 26012G18KT P6SM SKC
     FM270300 26006KT P6SM FEW250
     FM270600 12005KT P6SM SCT250=



000
FTUS45 KPSR 262021 AAA
TAFIWA
TAF AMD
KIWA 262021Z 2620/2718 30008KT P6SM SKC
     FM262100 25011G17KT P6SM SKC
     FM270100 22005KT P6SM FEW250
     FM270500 13007KT P6SM FEW250=



000
FTUS45 KPSR 261723
TAFBLH
TAF
KBLH 261723Z 2618/2718 31008KT P6SM SKC
     FM262100 23010KT P6SM FEW250
     FM271100 20005KT P6SM FEW250=



000
FTUS45 KPSR 261723
TAFIWA
TAF
KIWA 261723Z 2618/2718 27008KT P6SM SKC
     FM261900 25011G17KT P6SM SKC
     FM270100 22005KT P6SM FEW250
     FM270500 13007KT P6SM FEW250=



000
FTUS45 KPSR 261723
TAFPHX
TAF
KPHX 261723Z 2618/2718 29008KT P6SM SKC
     FM261900 26012G18KT P6SM SKC
     FM270300 26006KT P6SM FEW250
     FM270600 12005KT P6SM SCT250=



000
FTUS45 KPSR 261723
TAFIPL
TAF
KIPL 261723Z 2618/2718 27008KT P6SM SKC
     FM271200 24006KT P6SM FEW250=



    US Dept of Commerce
    National Oceanic and Atmospheric Administration
    National Weather Service
    1325 East West Highway
    Silver Spring, MD 20910
    Page Author: NWS Internet Services Team
Disclaimer
Information Quality
Credits
Glossary
Privacy Policy
Freedom of Information Act (FOIA)
About Us
Career Opportunities